sensor_id;sensor_type;location;lat;lon;timestamp;P1;durP1;ratioP1;P2;durP2;ratioP2
69172;SDS011;56280;49.662;8.408;2023-06-10T00:02:20;13.90;;;12.07;;
69172;SDS011;56280;49.662;8.408;2023-06-10T00:04:45;15.40;;;13.02;;
69172;SDS011;56280;49.662;8.408;2023-06-10T00:07:11;14.77;;;12.90;;
69172;SDS011;56280;49.662;8.408;2023-06-10T00:09:37;15.30;;;13.67;;
69172;SDS011;56280;49.662;8.408;2023-06-10T00:12:06;13.80;;;12.38;;
69172;SDS011;56280;49.662;8.408;2023-06-10T00:14:33;16.55;;;13.55;;
69172;SDS011;56280;49.662;8.408;2023-06-10T00:17:00;15.32;;;13.13;;
69172;SDS011;56280;49.662;8.408;2023-06-10T00:19:25;14.80;;;13.27;;
69172;SDS011;56280;49.662;8.408;2023-06-10T00:21:54;17.52;;;13.57;;
69172;SDS011;56280;49.662;8.408;2023-06-10T00:24:20;15.73;;;14.13;;
69172;SDS011;56280;49.662;8.408;2023-06-10T00:26:45;16.00;;;13.97;;
69172;SDS011;56280;49.662;8.408;2023-06-10T00:29:11;17.70;;;13.32;;
69172;SDS011;56280;49.662;8.408;2023-06-10T00:31:37;16.10;;;13.87;;
69172;SDS011;56280;49.662;8.408;2023-06-10T00:34:02;16.08;;;14.43;;
69172;SDS011;56280;49.662;8.408;2023-06-10T00:36:28;15.47;;;13.53;;
69172;SDS011;56280;49.662;8.408;2023-06-10T00:38:54;15.77;;;13.60;;
69172;SDS011;56280;49.662;8.408;2023-06-10T00:41:19;16.70;;;13.60;;
69172;SDS011;56280;49.662;8.408;2023-06-10T00:43:45;17.52;;;14.57;;
69172;SDS011;56280;49.662;8.408;2023-06-10T00:46:11;17.33;;;14.07;;
69172;SDS011;56280;49.662;8.408;2023-06-10T00:48:37;15.80;;;14.10;;
69172;SDS011;56280;49.662;8.408;2023-06-10T00:51:03;15.70;;;13.32;;
69172;SDS011;56280;49.662;8.408;2023-06-10T00:53:30;17.00;;;14.10;;
69172;SDS011;56280;49.662;8.408;2023-06-10T00:55:57;16.80;;;14.47;;
69172;SDS011;56280;49.662;8.408;2023-06-10T00:58:23;16.55;;;13.90;;
69172;SDS011;56280;49.662;8.408;2023-06-10T01:00:50;16.50;;;13.93;;
69172;SDS011;56280;49.662;8.408;2023-06-10T01:03:16;15.40;;;13.60;;
69172;SDS011;56280;49.662;8.408;2023-06-10T01:05:42;18.88;;;13.77;;
69172;SDS011;56280;49.662;8.408;2023-06-10T01:10:51;14.57;;;12.68;;
69172;SDS011;56280;49.662;8.408;2023-06-10T01:13:20;16.33;;;13.20;;
69172;SDS011;56280;49.662;8.408;2023-06-10T01:15:49;15.90;;;12.88;;
69172;SDS011;56280;49.662;8.408;2023-06-10T01:18:15;14.45;;;12.93;;
69172;SDS011;56280;49.662;8.408;2023-06-10T01:20:41;15.50;;;13.55;;
69172;SDS011;56280;49.662;8.408;2023-06-10T01:23:08;18.60;;;13.63;;
69172;SDS011;56280;49.662;8.408;2023-06-10T01:25:39;16.42;;;12.95;;
69172;SDS011;56280;49.662;8.408;2023-06-10T01:30:40;14.68;;;12.98;;
69172;SDS011;56280;49.662;8.408;2023-06-10T01:33:12;16.25;;;13.20;;
69172;SDS011;56280;49.662;8.408;2023-06-10T01:35:41;15.27;;;13.48;;
69172;SDS011;56280;49.662;8.408;2023-06-10T01:38:10;15.70;;;13.30;;
69172;SDS011;56280;49.662;8.408;2023-06-10T01:40:39;13.85;;;12.35;;
69172;SDS011;56280;49.662;8.408;2023-06-10T01:43:05;14.18;;;12.65;;
69172;SDS011;56280;49.662;8.408;2023-06-10T01:45:31;14.37;;;12.47;;
69172;SDS011;56280;49.662;8.408;2023-06-10T01:47:56;14.00;;;12.50;;
69172;SDS011;56280;49.662;8.408;2023-06-10T01:50:21;14.33;;;12.70;;
69172;SDS011;56280;49.662;8.408;2023-06-10T01:52:47;15.90;;;12.37;;
69172;SDS011;56280;49.662;8.408;2023-06-10T01:55:12;16.33;;;12.93;;
69172;SDS011;56280;49.662;8.408;2023-06-10T01:57:37;15.73;;;12.90;;
69172;SDS011;56280;49.662;8.408;2023-06-10T02:00:03;15.13;;;13.53;;
69172;SDS011;56280;49.662;8.408;2023-06-10T02:02:28;15.57;;;13.03;;
69172;SDS011;56280;49.662;8.408;2023-06-10T02:04:54;15.73;;;13.30;;
69172;SDS011;56280;49.662;8.408;2023-06-10T02:07:20;15.32;;;13.60;;
69172;SDS011;56280;49.662;8.408;2023-06-10T02:09:45;16.07;;;13.00;;
69172;SDS011;56280;49.662;8.408;2023-06-10T02:12:10;15.70;;;13.07;;
69172;SDS011;56280;49.662;8.408;2023-06-10T02:14:36;15.18;;;13.57;;
69172;SDS011;56280;49.662;8.408;2023-06-10T02:17:02;16.60;;;14.87;;
69172;SDS011;56280;49.662;8.408;2023-06-10T02:19:27;17.00;;;14.27;;
69172;SDS011;56280;49.662;8.408;2023-06-10T02:21:53;19.07;;;14.27;;
69172;SDS011;56280;49.662;8.408;2023-06-10T02:24:18;15.37;;;13.37;;
69172;SDS011;56280;49.662;8.408;2023-06-10T02:26:43;17.23;;;13.80;;
69172;SDS011;56280;49.662;8.408;2023-06-10T02:29:10;16.23;;;14.52;;
69172;SDS011;56280;49.662;8.408;2023-06-10T02:31:35;16.58;;;13.82;;
69172;SDS011;56280;49.662;8.408;2023-06-10T02:34:01;17.03;;;14.73;;
69172;SDS011;56280;49.662;8.408;2023-06-10T02:36:28;16.48;;;13.75;;
69172;SDS011;56280;49.662;8.408;2023-06-10T02:38:53;15.27;;;13.63;;
69172;SDS011;56280;49.662;8.408;2023-06-10T02:41:18;16.53;;;14.47;;
69172;SDS011;56280;49.662;8.408;2023-06-10T02:43:44;16.13;;;14.40;;
69172;SDS011;56280;49.662;8.408;2023-06-10T02:46:09;16.75;;;15.00;;
69172;SDS011;56280;49.662;8.408;2023-06-10T02:48:45;17.13;;;14.18;;
69172;SDS011;56280;49.662;8.408;2023-06-10T02:51:11;16.73;;;14.93;;
69172;SDS011;56280;49.662;8.408;2023-06-10T02:53:36;16.30;;;14.60;;
69172;SDS011;56280;49.662;8.408;2023-06-10T02:56:02;15.93;;;13.57;;
69172;SDS011;56280;49.662;8.408;2023-06-10T02:58:27;15.88;;;14.27;;
69172;SDS011;56280;49.662;8.408;2023-06-10T03:00:53;15.80;;;13.90;;
69172;SDS011;56280;49.662;8.408;2023-06-10T03:03:18;16.07;;;13.43;;
69172;SDS011;56280;49.662;8.408;2023-06-10T03:05:43;14.50;;;12.90;;
69172;SDS011;56280;49.662;8.408;2023-06-10T03:08:09;16.27;;;13.57;;
69172;SDS011;56280;49.662;8.408;2023-06-10T03:10:34;16.03;;;13.33;;
69172;SDS011;56280;49.662;8.408;2023-06-10T03:12:59;15.97;;;13.90;;
69172;SDS011;56280;49.662;8.408;2023-06-10T03:15:25;16.67;;;14.47;;
69172;SDS011;56280;49.662;8.408;2023-06-10T03:17:50;16.47;;;13.90;;
69172;SDS011;56280;49.662;8.408;2023-06-10T03:20:15;17.63;;;14.10;;
69172;SDS011;56280;49.662;8.408;2023-06-10T03:22:41;15.90;;;13.68;;
69172;SDS011;56280;49.662;8.408;2023-06-10T03:25:07;15.43;;;13.17;;
69172;SDS011;56280;49.662;8.408;2023-06-10T03:27:39;15.55;;;13.80;;
69172;SDS011;56280;49.662;8.408;2023-06-10T03:30:05;17.63;;;14.50;;
69172;SDS011;56280;49.662;8.408;2023-06-10T03:32:31;16.25;;;14.18;;
69172;SDS011;56280;49.662;8.408;2023-06-10T03:34:56;16.00;;;14.33;;
69172;SDS011;56280;49.662;8.408;2023-06-10T03:37:22;15.80;;;14.10;;
69172;SDS011;56280;49.662;8.408;2023-06-10T03:39:48;15.88;;;13.27;;
69172;SDS011;56280;49.662;8.408;2023-06-10T03:42:13;14.67;;;13.10;;
69172;SDS011;56280;49.662;8.408;2023-06-10T03:44:38;16.63;;;13.73;;
69172;SDS011;56280;49.662;8.408;2023-06-10T03:47:03;15.63;;;13.40;;
69172;SDS011;56280;49.662;8.408;2023-06-10T03:49:29;16.63;;;13.70;;
69172;SDS011;56280;49.662;8.408;2023-06-10T03:51:55;15.93;;;13.20;;
69172;SDS011;56280;49.662;8.408;2023-06-10T03:54:20;16.65;;;14.00;;
69172;SDS011;56280;49.662;8.408;2023-06-10T03:56:46;15.55;;;13.43;;
69172;SDS011;56280;49.662;8.408;2023-06-10T03:59:13;15.07;;;12.85;;
69172;SDS011;56280;49.662;8.408;2023-06-10T04:01:38;16.67;;;13.50;;
69172;SDS011;56280;49.662;8.408;2023-06-10T04:04:06;16.00;;;13.90;;
69172;SDS011;56280;49.662;8.408;2023-06-10T04:06:31;15.77;;;13.60;;
69172;SDS011;56280;49.662;8.408;2023-06-10T04:08:56;16.27;;;13.67;;
69172;SDS011;56280;49.662;8.408;2023-06-10T04:11:22;19.13;;;13.48;;
69172;SDS011;56280;49.662;8.408;2023-06-10T04:13:49;15.30;;;13.20;;
69172;SDS011;56280;49.662;8.408;2023-06-10T04:16:14;17.27;;;13.87;;
69172;SDS011;56280;49.662;8.408;2023-06-10T04:18:40;16.50;;;13.25;;
69172;SDS011;56280;49.662;8.408;2023-06-10T04:21:06;16.60;;;13.43;;
69172;SDS011;56280;49.662;8.408;2023-06-10T04:23:32;17.73;;;14.27;;
69172;SDS011;56280;49.662;8.408;2023-06-10T04:25:57;14.73;;;13.10;;
69172;SDS011;56280;49.662;8.408;2023-06-10T04:28:24;17.85;;;13.48;;
69172;SDS011;56280;49.662;8.408;2023-06-10T04:30:49;16.00;;;13.70;;
69172;SDS011;56280;49.662;8.408;2023-06-10T04:33:15;18.10;;;14.23;;
69172;SDS011;56280;49.662;8.408;2023-06-10T04:35:41;14.82;;;12.93;;
69172;SDS011;56280;49.662;8.408;2023-06-10T04:38:07;16.90;;;13.82;;
69172;SDS011;56280;49.662;8.408;2023-06-10T04:40:32;18.67;;;13.67;;
69172;SDS011;56280;49.662;8.408;2023-06-10T04:42:57;15.67;;;13.27;;
69172;SDS011;56280;49.662;8.408;2023-06-10T04:45:23;18.33;;;13.97;;
69172;SDS011;56280;49.662;8.408;2023-06-10T04:47:48;22.67;;;14.27;;
69172;SDS011;56280;49.662;8.408;2023-06-10T04:50:13;15.27;;;13.50;;
69172;SDS011;56280;49.662;8.408;2023-06-10T04:52:38;15.23;;;13.37;;
69172;SDS011;56280;49.662;8.408;2023-06-10T04:55:06;16.25;;;13.20;;
69172;SDS011;56280;49.662;8.408;2023-06-10T04:57:32;16.92;;;12.93;;
69172;SDS011;56280;49.662;8.408;2023-06-10T04:59:57;16.58;;;12.98;;
69172;SDS011;56280;49.662;8.408;2023-06-10T05:02:22;16.77;;;12.63;;
69172;SDS011;56280;49.662;8.408;2023-06-10T05:04:48;13.65;;;12.05;;
69172;SDS011;56280;49.662;8.408;2023-06-10T05:07:13;15.33;;;13.43;;
69172;SDS011;56280;49.662;8.408;2023-06-10T05:09:38;17.57;;;13.07;;
69172;SDS011;56280;49.662;8.408;2023-06-10T05:12:04;15.23;;;13.20;;
69172;SDS011;56280;49.662;8.408;2023-06-10T05:14:30;17.25;;;13.65;;
69172;SDS011;56280;49.662;8.408;2023-06-10T05:16:56;15.57;;;12.80;;
69172;SDS011;56280;49.662;8.408;2023-06-10T05:19:21;13.77;;;12.33;;
69172;SDS011;56280;49.662;8.408;2023-06-10T05:21:47;13.43;;;11.95;;
69172;SDS011;56280;49.662;8.408;2023-06-10T05:24:13;15.23;;;12.07;;
69172;SDS011;56280;49.662;8.408;2023-06-10T05:26:38;14.90;;;11.87;;
69172;SDS011;56280;49.662;8.408;2023-06-10T05:29:04;16.20;;;11.67;;
69172;SDS011;56280;49.662;8.408;2023-06-10T05:31:30;13.73;;;12.23;;
69172;SDS011;56280;49.662;8.408;2023-06-10T05:33:55;12.97;;;11.57;;
69172;SDS011;56280;49.662;8.408;2023-06-10T05:36:20;13.07;;;11.00;;
69172;SDS011;56280;49.662;8.408;2023-06-10T05:38:46;13.30;;;11.27;;
69172;SDS011;56280;49.662;8.408;2023-06-10T05:41:11;15.37;;;11.87;;
69172;SDS011;56280;49.662;8.408;2023-06-10T05:43:37;13.77;;;11.37;;
69172;SDS011;56280;49.662;8.408;2023-06-10T05:46:02;13.35;;;11.02;;
69172;SDS011;56280;49.662;8.408;2023-06-10T05:48:27;12.90;;;11.52;;
69172;SDS011;56280;49.662;8.408;2023-06-10T05:50:53;13.63;;;10.77;;
69172;SDS011;56280;49.662;8.408;2023-06-10T05:53:18;15.07;;;11.03;;
69172;SDS011;56280;49.662;8.408;2023-06-10T05:55:44;13.20;;;10.60;;
69172;SDS011;56280;49.662;8.408;2023-06-10T05:58:10;12.27;;;10.98;;
69172;SDS011;56280;49.662;8.408;2023-06-10T06:00:37;12.60;;;11.07;;
69172;SDS011;56280;49.662;8.408;2023-06-10T06:03:03;12.45;;;10.63;;
69172;SDS011;56280;49.662;8.408;2023-06-10T06:05:28;12.90;;;10.40;;
69172;SDS011;56280;49.662;8.408;2023-06-10T06:07:59;12.80;;;11.10;;
69172;SDS011;56280;49.662;8.408;2023-06-10T06:10:25;12.67;;;10.13;;
69172;SDS011;56280;49.662;8.408;2023-06-10T06:12:50;13.47;;;10.87;;
69172;SDS011;56280;49.662;8.408;2023-06-10T06:15:16;12.60;;;10.73;;
69172;SDS011;56280;49.662;8.408;2023-06-10T06:17:41;12.40;;;10.20;;
69172;SDS011;56280;49.662;8.408;2023-06-10T06:20:06;13.20;;;11.17;;
69172;SDS011;56280;49.662;8.408;2023-06-10T06:22:32;12.00;;;10.30;;
69172;SDS011;56280;49.662;8.408;2023-06-10T06:24:57;12.40;;;10.63;;
69172;SDS011;56280;49.662;8.408;2023-06-10T06:27:23;13.15;;;10.15;;
69172;SDS011;56280;49.662;8.408;2023-06-10T06:29:48;14.48;;;10.15;;
69172;SDS011;56280;49.662;8.408;2023-06-10T06:32:13;13.97;;;10.07;;
69172;SDS011;56280;49.662;8.408;2023-06-10T06:34:38;12.37;;;10.23;;
69172;SDS011;56280;49.662;8.408;2023-06-10T06:37:04;12.07;;;10.37;;
69172;SDS011;56280;49.662;8.408;2023-06-10T06:39:29;12.40;;;9.57;;
69172;SDS011;56280;49.662;8.408;2023-06-10T06:41:54;11.90;;;9.77;;
69172;SDS011;56280;49.662;8.408;2023-06-10T06:44:20;12.60;;;10.00;;
69172;SDS011;56280;49.662;8.408;2023-06-10T06:46:45;12.80;;;9.80;;
69172;SDS011;56280;49.662;8.408;2023-06-10T06:49:10;11.20;;;9.43;;
69172;SDS011;56280;49.662;8.408;2023-06-10T06:51:36;12.87;;;10.17;;
69172;SDS011;56280;49.662;8.408;2023-06-10T06:54:02;13.20;;;9.63;;
69172;SDS011;56280;49.662;8.408;2023-06-10T06:56:27;10.50;;;8.88;;
69172;SDS011;56280;49.662;8.408;2023-06-10T06:58:53;12.43;;;9.57;;
69172;SDS011;56280;49.662;8.408;2023-06-10T07:01:18;12.27;;;9.40;;
69172;SDS011;56280;49.662;8.408;2023-06-10T07:03:43;11.23;;;9.80;;
69172;SDS011;56280;49.662;8.408;2023-06-10T07:06:09;11.30;;;9.47;;
69172;SDS011;56280;49.662;8.408;2023-06-10T07:08:34;12.37;;;9.03;;
69172;SDS011;56280;49.662;8.408;2023-06-10T07:11:00;11.23;;;8.93;;
69172;SDS011;56280;49.662;8.408;2023-06-10T07:13:25;10.55;;;9.45;;
69172;SDS011;56280;49.662;8.408;2023-06-10T07:15:50;11.75;;;9.70;;
69172;SDS011;56280;49.662;8.408;2023-06-10T07:18:16;10.73;;;8.80;;
69172;SDS011;56280;49.662;8.408;2023-06-10T07:20:42;10.57;;;8.90;;
69172;SDS011;56280;49.662;8.408;2023-06-10T07:23:07;11.65;;;8.98;;
69172;SDS011;56280;49.662;8.408;2023-06-10T07:25:33;10.98;;;9.07;;
69172;SDS011;56280;49.662;8.408;2023-06-10T07:27:58;10.20;;;8.47;;
69172;SDS011;56280;49.662;8.408;2023-06-10T07:30:23;9.57;;;8.47;;
69172;SDS011;56280;49.662;8.408;2023-06-10T07:32:49;9.83;;;8.73;;
69172;SDS011;56280;49.662;8.408;2023-06-10T07:35:14;12.20;;;8.80;;
69172;SDS011;56280;49.662;8.408;2023-06-10T07:37:39;9.82;;;8.48;;
69172;SDS011;56280;49.662;8.408;2023-06-10T07:40:05;9.90;;;8.38;;
69172;SDS011;56280;49.662;8.408;2023-06-10T07:42:31;10.25;;;8.07;;
69172;SDS011;56280;49.662;8.408;2023-06-10T07:44:59;9.50;;;7.90;;
69172;SDS011;56280;49.662;8.408;2023-06-10T07:47:24;11.15;;;7.72;;
69172;SDS011;56280;49.662;8.408;2023-06-10T07:49:50;11.65;;;8.45;;
69172;SDS011;56280;49.662;8.408;2023-06-10T07:52:15;9.67;;;8.20;;
69172;SDS011;56280;49.662;8.408;2023-06-10T07:54:40;9.50;;;7.57;;
69172;SDS011;56280;49.662;8.408;2023-06-10T07:57:06;10.10;;;7.68;;
69172;SDS011;56280;49.662;8.408;2023-06-10T07:59:34;9.80;;;7.85;;
69172;SDS011;56280;49.662;8.408;2023-06-10T08:02:00;9.00;;;7.60;;
69172;SDS011;56280;49.662;8.408;2023-06-10T08:04:25;9.87;;;7.57;;
69172;SDS011;56280;49.662;8.408;2023-06-10T08:06:50;8.20;;;7.23;;
69172;SDS011;56280;49.662;8.408;2023-06-10T08:09:16;8.10;;;7.10;;
69172;SDS011;56280;49.662;8.408;2023-06-10T08:11:41;10.33;;;8.20;;
69172;SDS011;56280;49.662;8.408;2023-06-10T08:14:07;10.57;;;8.07;;
69172;SDS011;56280;49.662;8.408;2023-06-10T08:16:32;10.37;;;7.90;;
69172;SDS011;56280;49.662;8.408;2023-06-10T08:18:57;10.27;;;7.80;;
69172;SDS011;56280;49.662;8.408;2023-06-10T08:21:22;9.70;;;7.80;;
69172;SDS011;56280;49.662;8.408;2023-06-10T08:23:48;9.63;;;7.20;;
69172;SDS011;56280;49.662;8.408;2023-06-10T08:26:17;9.87;;;7.87;;
69172;SDS011;56280;49.662;8.408;2023-06-10T08:28:43;9.27;;;7.73;;
69172;SDS011;56280;49.662;8.408;2023-06-10T08:31:08;9.53;;;7.23;;
69172;SDS011;56280;49.662;8.408;2023-06-10T08:33:33;9.57;;;7.30;;
69172;SDS011;56280;49.662;8.408;2023-06-10T08:35:58;9.60;;;7.73;;
69172;SDS011;56280;49.662;8.408;2023-06-10T08:38:24;8.97;;;7.47;;
69172;SDS011;56280;49.662;8.408;2023-06-10T08:40:50;9.27;;;7.70;;
69172;SDS011;56280;49.662;8.408;2023-06-10T08:43:31;8.90;;;7.80;;
69172;SDS011;56280;49.662;8.408;2023-06-10T08:46:02;10.00;;;8.02;;
69172;SDS011;56280;49.662;8.408;2023-06-10T08:48:29;10.48;;;7.65;;
69172;SDS011;56280;49.662;8.408;2023-06-10T08:50:56;9.57;;;7.78;;
69172;SDS011;56280;49.662;8.408;2023-06-10T08:53:22;10.25;;;8.00;;
69172;SDS011;56280;49.662;8.408;2023-06-10T08:55:50;10.43;;;8.20;;
69172;SDS011;56280;49.662;8.408;2023-06-10T08:58:19;8.70;;;7.07;;
69172;SDS011;56280;49.662;8.408;2023-06-10T09:00:45;9.03;;;7.23;;
69172;SDS011;56280;49.662;8.408;2023-06-10T09:03:11;10.60;;;7.78;;
69172;SDS011;56280;49.662;8.408;2023-06-10T09:05:36;9.13;;;7.73;;
69172;SDS011;56280;49.662;8.408;2023-06-10T09:08:03;10.35;;;8.13;;
69172;SDS011;56280;49.662;8.408;2023-06-10T09:10:30;13.53;;;8.03;;
69172;SDS011;56280;49.662;8.408;2023-06-10T09:12:56;9.57;;;8.15;;
69172;SDS011;56280;49.662;8.408;2023-06-10T09:15:21;10.95;;;8.48;;
69172;SDS011;56280;49.662;8.408;2023-06-10T09:17:47;9.77;;;8.47;;
69172;SDS011;56280;49.662;8.408;2023-06-10T09:20:12;11.73;;;8.40;;
69172;SDS011;56280;49.662;8.408;2023-06-10T09:22:38;9.73;;;8.30;;
69172;SDS011;56280;49.662;8.408;2023-06-10T09:25:07;10.85;;;8.50;;
69172;SDS011;56280;49.662;8.408;2023-06-10T09:27:46;10.07;;;8.32;;
69172;SDS011;56280;49.662;8.408;2023-06-10T09:32:53;10.82;;;8.13;;
69172;SDS011;56280;49.662;8.408;2023-06-10T09:35:26;9.65;;;8.20;;
69172;SDS011;56280;49.662;8.408;2023-06-10T09:37:56;10.48;;;8.32;;
69172;SDS011;56280;49.662;8.408;2023-06-10T09:40:22;10.63;;;7.82;;
69172;SDS011;56280;49.662;8.408;2023-06-10T09:42:52;11.13;;;7.77;;
69172;SDS011;56280;49.662;8.408;2023-06-10T09:45:30;10.90;;;7.85;;
69172;SDS011;56280;49.662;8.408;2023-06-10T09:47:56;9.85;;;7.60;;
69172;SDS011;56280;49.662;8.408;2023-06-10T09:50:21;11.70;;;7.67;;
69172;SDS011;56280;49.662;8.408;2023-06-10T09:52:47;9.07;;;7.57;;
69172;SDS011;56280;49.662;8.408;2023-06-10T09:55:15;10.00;;;7.60;;
69172;SDS011;56280;49.662;8.408;2023-06-10T09:57:41;9.70;;;7.60;;
69172;SDS011;56280;49.662;8.408;2023-06-10T10:00:09;10.57;;;7.63;;
69172;SDS011;56280;49.662;8.408;2023-06-10T10:02:48;10.02;;;7.68;;
69172;SDS011;56280;49.662;8.408;2023-06-10T10:05:15;9.75;;;7.95;;
69172;SDS011;56280;49.662;8.408;2023-06-10T10:07:42;10.98;;;8.52;;
69172;SDS011;56280;49.662;8.408;2023-06-10T10:10:08;10.55;;;7.68;;
69172;SDS011;56280;49.662;8.408;2023-06-10T10:12:35;8.88;;;7.68;;
69172;SDS011;56280;49.662;8.408;2023-06-10T10:15:01;8.57;;;7.65;;
69172;SDS011;56280;49.662;8.408;2023-06-10T10:17:27;9.55;;;7.82;;
69172;SDS011;56280;49.662;8.408;2023-06-10T10:19:56;8.87;;;7.50;;
69172;SDS011;56280;49.662;8.408;2023-06-10T10:22:29;9.00;;;6.95;;
69172;SDS011;56280;49.662;8.408;2023-06-10T10:24:57;9.63;;;6.15;;
69172;SDS011;56280;49.662;8.408;2023-06-10T10:27:28;9.88;;;6.35;;
69172;SDS011;56280;49.662;8.408;2023-06-10T10:29:56;9.65;;;6.55;;
69172;SDS011;56280;49.662;8.408;2023-06-10T10:32:26;7.18;;;6.43;;
69172;SDS011;56280;49.662;8.408;2023-06-10T10:35:31;8.18;;;6.60;;
69172;SDS011;56280;49.662;8.408;2023-06-10T10:37:53;8.07;;;6.03;;
69172;SDS011;56280;49.662;8.408;2023-06-10T10:40:20;7.60;;;5.93;;
69172;SDS011;56280;49.662;8.408;2023-06-10T10:42:48;9.27;;;6.03;;
69172;SDS011;56280;49.662;8.408;2023-06-10T10:45:14;7.20;;;6.10;;
69172;SDS011;56280;49.662;8.408;2023-06-10T10:47:40;7.88;;;6.20;;
69172;SDS011;56280;49.662;8.408;2023-06-10T10:50:16;7.90;;;6.10;;
69172;SDS011;56280;49.662;8.408;2023-06-10T10:53:02;7.53;;;6.20;;
69172;SDS011;56280;49.662;8.408;2023-06-10T10:55:28;7.10;;;6.20;;
69172;SDS011;56280;49.662;8.408;2023-06-10T10:57:57;7.25;;;5.78;;
69172;SDS011;56280;49.662;8.408;2023-06-10T11:00:30;6.90;;;5.70;;
69172;SDS011;56280;49.662;8.408;2023-06-10T11:08:12;7.95;;;5.85;;
69172;SDS011;56280;49.662;8.408;2023-06-10T11:10:39;8.10;;;5.53;;
69172;SDS011;56280;49.662;8.408;2023-06-10T11:13:07;8.13;;;5.93;;
69172;SDS011;56280;49.662;8.408;2023-06-10T11:15:33;8.70;;;5.95;;
69172;SDS011;56280;49.662;8.408;2023-06-10T11:18:22;7.70;;;6.32;;
69172;SDS011;56280;49.662;8.408;2023-06-10T11:23:24;8.98;;;6.30;;
69172;SDS011;56280;49.662;8.408;2023-06-10T11:26:11;8.05;;;6.30;;
69172;SDS011;56280;49.662;8.408;2023-06-10T11:31:21;10.47;;;6.23;;
69172;SDS011;56280;49.662;8.408;2023-06-10T11:33:48;7.57;;;5.97;;
69172;SDS011;56280;49.662;8.408;2023-06-10T11:36:18;9.88;;;6.10;;
69172;SDS011;56280;49.662;8.408;2023-06-10T11:38:43;8.20;;;6.30;;
69172;SDS011;56280;49.662;8.408;2023-06-10T11:41:08;8.00;;;7.18;;
69172;SDS011;56280;49.662;8.408;2023-06-10T11:43:36;8.18;;;6.78;;
69172;SDS011;56280;49.662;8.408;2023-06-10T11:46:01;8.77;;;6.40;;
69172;SDS011;56280;49.662;8.408;2023-06-10T11:48:27;6.70;;;5.97;;
69172;SDS011;56280;49.662;8.408;2023-06-10T11:50:55;8.35;;;6.32;;
69172;SDS011;56280;49.662;8.408;2023-06-10T11:53:20;8.10;;;6.47;;
69172;SDS011;56280;49.662;8.408;2023-06-10T11:55:46;7.20;;;5.90;;
69172;SDS011;56280;49.662;8.408;2023-06-10T11:58:13;8.05;;;6.10;;
69172;SDS011;56280;49.662;8.408;2023-06-10T12:00:46;8.30;;;5.75;;
69172;SDS011;56280;49.662;8.408;2023-06-10T12:03:14;6.50;;;5.67;;
69172;SDS011;56280;49.662;8.408;2023-06-10T12:05:40;7.47;;;5.20;;
69172;SDS011;56280;49.662;8.408;2023-06-10T12:08:08;6.73;;;5.23;;
69172;SDS011;56280;49.662;8.408;2023-06-10T12:10:39;7.57;;;5.30;;
69172;SDS011;56280;49.662;8.408;2023-06-10T12:13:06;7.40;;;5.35;;
69172;SDS011;56280;49.662;8.408;2023-06-10T12:15:31;7.57;;;4.80;;
69172;SDS011;56280;49.662;8.408;2023-06-10T12:17:57;7.72;;;4.90;;
69172;SDS011;56280;49.662;8.408;2023-06-10T12:20:26;6.95;;;4.78;;
69172;SDS011;56280;49.662;8.408;2023-06-10T12:22:53;7.10;;;4.90;;
69172;SDS011;56280;49.662;8.408;2023-06-10T12:25:23;6.23;;;4.70;;
69172;SDS011;56280;49.662;8.408;2023-06-10T12:27:51;5.90;;;4.75;;
69172;SDS011;56280;49.662;8.408;2023-06-10T12:30:21;6.65;;;4.30;;
69172;SDS011;56280;49.662;8.408;2023-06-10T12:32:49;6.72;;;4.60;;
69172;SDS011;56280;49.662;8.408;2023-06-10T12:35:16;6.32;;;4.50;;
69172;SDS011;56280;49.662;8.408;2023-06-10T12:37:53;8.48;;;4.70;;
69172;SDS011;56280;49.662;8.408;2023-06-10T12:40:32;6.65;;;4.68;;
69172;SDS011;56280;49.662;8.408;2023-06-10T12:42:59;6.60;;;4.32;;
69172;SDS011;56280;49.662;8.408;2023-06-10T12:45:28;6.50;;;4.80;;
69172;SDS011;56280;49.662;8.408;2023-06-10T12:48:07;6.25;;;4.40;;
69172;SDS011;56280;49.662;8.408;2023-06-10T12:50:37;5.75;;;4.30;;
69172;SDS011;56280;49.662;8.408;2023-06-10T12:53:04;6.97;;;4.47;;
69172;SDS011;56280;49.662;8.408;2023-06-10T12:55:30;7.10;;;4.63;;
69172;SDS011;56280;49.662;8.408;2023-06-10T12:57:57;6.75;;;4.95;;
69172;SDS011;56280;49.662;8.408;2023-06-10T13:00:22;6.50;;;4.50;;
69172;SDS011;56280;49.662;8.408;2023-06-10T13:02:50;8.00;;;4.80;;
69172;SDS011;56280;49.662;8.408;2023-06-10T13:05:17;6.80;;;4.70;;
69172;SDS011;56280;49.662;8.408;2023-06-10T13:07:43;5.85;;;4.50;;
69172;SDS011;56280;49.662;8.408;2023-06-10T13:10:09;6.27;;;4.90;;
69172;SDS011;56280;49.662;8.408;2023-06-10T13:12:35;5.97;;;4.72;;
69172;SDS011;56280;49.662;8.408;2023-06-10T13:15:01;6.80;;;4.80;;
69172;SDS011;56280;49.662;8.408;2023-06-10T13:17:26;5.75;;;4.43;;
69172;SDS011;56280;49.662;8.408;2023-06-10T13:19:52;6.50;;;5.00;;
69172;SDS011;56280;49.662;8.408;2023-06-10T13:22:18;6.67;;;4.60;;
69172;SDS011;56280;49.662;8.408;2023-06-10T13:24:45;6.28;;;4.70;;
69172;SDS011;56280;49.662;8.408;2023-06-10T13:27:10;6.77;;;4.67;;
69172;SDS011;56280;49.662;8.408;2023-06-10T13:29:36;6.95;;;4.53;;
69172;SDS011;56280;49.662;8.408;2023-06-10T13:32:01;6.72;;;4.78;;
69172;SDS011;56280;49.662;8.408;2023-06-10T13:34:26;6.20;;;4.70;;
69172;SDS011;56280;49.662;8.408;2023-06-10T13:36:53;6.43;;;4.50;;
69172;SDS011;56280;49.662;8.408;2023-06-10T13:39:18;5.83;;;4.30;;
69172;SDS011;56280;49.662;8.408;2023-06-10T13:41:44;6.60;;;4.67;;
69172;SDS011;56280;49.662;8.408;2023-06-10T13:44:09;7.30;;;4.80;;
69172;SDS011;56280;49.662;8.408;2023-06-10T13:46:34;6.17;;;4.80;;
69172;SDS011;56280;49.662;8.408;2023-06-10T13:49:00;5.93;;;4.70;;
69172;SDS011;56280;49.662;8.408;2023-06-10T13:51:25;7.03;;;4.73;;
69172;SDS011;56280;49.662;8.408;2023-06-10T13:53:50;6.53;;;4.90;;
69172;SDS011;56280;49.662;8.408;2023-06-10T13:56:16;6.18;;;4.72;;
69172;SDS011;56280;49.662;8.408;2023-06-10T13:58:42;6.33;;;4.93;;
69172;SDS011;56280;49.662;8.408;2023-06-10T14:01:08;5.78;;;4.60;;
69172;SDS011;56280;49.662;8.408;2023-06-10T14:03:33;6.27;;;4.30;;
69172;SDS011;56280;49.662;8.408;2023-06-10T14:05:58;6.60;;;4.77;;
69172;SDS011;56280;49.662;8.408;2023-06-10T14:08:24;6.33;;;4.70;;
69172;SDS011;56280;49.662;8.408;2023-06-10T14:10:49;7.30;;;4.97;;
69172;SDS011;56280;49.662;8.408;2023-06-10T14:13:16;7.00;;;4.70;;
69172;SDS011;56280;49.662;8.408;2023-06-10T14:15:42;6.38;;;4.68;;
69172;SDS011;56280;49.662;8.408;2023-06-10T14:18:07;6.30;;;4.30;;
69172;SDS011;56280;49.662;8.408;2023-06-10T14:20:32;6.37;;;4.40;;
69172;SDS011;56280;49.662;8.408;2023-06-10T14:22:58;5.90;;;4.57;;
69172;SDS011;56280;49.662;8.408;2023-06-10T14:25:24;7.40;;;4.53;;
69172;SDS011;56280;49.662;8.408;2023-06-10T14:27:50;6.53;;;4.43;;
69172;SDS011;56280;49.662;8.408;2023-06-10T14:30:15;6.53;;;4.60;;
69172;SDS011;56280;49.662;8.408;2023-06-10T14:32:40;6.20;;;4.50;;
69172;SDS011;56280;49.662;8.408;2023-06-10T14:35:06;6.82;;;4.95;;
69172;SDS011;56280;49.662;8.408;2023-06-10T14:37:31;6.03;;;4.43;;
69172;SDS011;56280;49.662;8.408;2023-06-10T14:39:56;6.03;;;4.63;;
69172;SDS011;56280;49.662;8.408;2023-06-10T14:42:22;5.70;;;4.50;;
69172;SDS011;56280;49.662;8.408;2023-06-10T14:44:47;5.67;;;4.43;;
69172;SDS011;56280;49.662;8.408;2023-06-10T14:47:12;6.43;;;4.70;;
69172;SDS011;56280;49.662;8.408;2023-06-10T14:49:38;8.70;;;4.90;;